sensor_id;sensor_type;location;lat;lon;timestamp;P1;durP1;ratioP1;P2;durP2;ratioP2
16665;SDS011;8446;50.998;6.250;2023-06-14T00:02:00;13.03;;;5.30;;
16665;SDS011;8446;50.998;6.250;2023-06-14T00:04:27;20.97;;;6.00;;
16665;SDS011;8446;50.998;6.250;2023-06-14T00:06:54;8.40;;;5.27;;
16665;SDS011;8446;50.998;6.250;2023-06-14T00:09:22;9.47;;;5.97;;
16665;SDS011;8446;50.998;6.250;2023-06-14T00:11:49;8.80;;;4.90;;
16665;SDS011;8446;50.998;6.250;2023-06-14T00:14:17;8.20;;;5.50;;
16665;SDS011;8446;50.998;6.250;2023-06-14T00:16:44;7.10;;;5.20;;
16665;SDS011;8446;50.998;6.250;2023-06-14T00:19:11;12.37;;;5.27;;
16665;SDS011;8446;50.998;6.250;2023-06-14T00:21:38;8.03;;;5.63;;
16665;SDS011;8446;50.998;6.250;2023-06-14T00:24:05;9.20;;;5.43;;
16665;SDS011;8446;50.998;6.250;2023-06-14T00:26:33;11.03;;;5.90;;
16665;SDS011;8446;50.998;6.250;2023-06-14T00:29:00;8.23;;;4.90;;
16665;SDS011;8446;50.998;6.250;2023-06-14T00:31:28;8.70;;;4.97;;
16665;SDS011;8446;50.998;6.250;2023-06-14T00:33:55;7.20;;;5.27;;
16665;SDS011;8446;50.998;6.250;2023-06-14T00:36:22;7.23;;;5.47;;
16665;SDS011;8446;50.998;6.250;2023-06-14T00:38:49;6.37;;;5.20;;
16665;SDS011;8446;50.998;6.250;2023-06-14T00:41:16;8.07;;;5.27;;
16665;SDS011;8446;50.998;6.250;2023-06-14T00:43:42;6.70;;;5.00;;
16665;SDS011;8446;50.998;6.250;2023-06-14T00:46:09;13.63;;;5.27;;
16665;SDS011;8446;50.998;6.250;2023-06-14T00:48:37;10.77;;;5.90;;
16665;SDS011;8446;50.998;6.250;2023-06-14T00:51:05;7.50;;;5.80;;
16665;SDS011;8446;50.998;6.250;2023-06-14T00:53:33;8.13;;;4.90;;
16665;SDS011;8446;50.998;6.250;2023-06-14T00:56:01;11.37;;;5.30;;
16665;SDS011;8446;50.998;6.250;2023-06-14T00:58:28;9.00;;;5.70;;
16665;SDS011;8446;50.998;6.250;2023-06-14T01:00:55;6.60;;;5.47;;
16665;SDS011;8446;50.998;6.250;2023-06-14T01:03:23;9.30;;;5.43;;
16665;SDS011;8446;50.998;6.250;2023-06-14T01:05:53;6.47;;;5.83;;
16665;SDS011;8446;50.998;6.250;2023-06-14T01:08:30;10.20;;;5.30;;
16665;SDS011;8446;50.998;6.250;2023-06-14T01:11:05;8.23;;;6.33;;
16665;SDS011;8446;50.998;6.250;2023-06-14T01:13:45;13.27;;;5.80;;
16665;SDS011;8446;50.998;6.250;2023-06-14T01:16:12;6.57;;;5.43;;
16665;SDS011;8446;50.998;6.250;2023-06-14T01:18:41;7.33;;;5.87;;
16665;SDS011;8446;50.998;6.250;2023-06-14T01:21:20;7.33;;;5.20;;
16665;SDS011;8446;50.998;6.250;2023-06-14T01:23:50;16.03;;;6.37;;
16665;SDS011;8446;50.998;6.250;2023-06-14T01:26:18;7.80;;;6.30;;
16665;SDS011;8446;50.998;6.250;2023-06-14T01:28:45;10.57;;;6.07;;
16665;SDS011;8446;50.998;6.250;2023-06-14T01:31:16;8.00;;;5.40;;
16665;SDS011;8446;50.998;6.250;2023-06-14T01:33:44;9.20;;;5.47;;
16665;SDS011;8446;50.998;6.250;2023-06-14T01:36:12;6.43;;;5.07;;
16665;SDS011;8446;50.998;6.250;2023-06-14T01:38:40;8.33;;;5.70;;
16665;SDS011;8446;50.998;6.250;2023-06-14T01:41:10;8.53;;;5.77;;
16665;SDS011;8446;50.998;6.250;2023-06-14T01:43:39;6.90;;;5.53;;
16665;SDS011;8446;50.998;6.250;2023-06-14T01:46:08;9.13;;;5.67;;
16665;SDS011;8446;50.998;6.250;2023-06-14T01:48:35;8.87;;;5.60;;
16665;SDS011;8446;50.998;6.250;2023-06-14T01:51:02;8.60;;;6.40;;
16665;SDS011;8446;50.998;6.250;2023-06-14T01:53:29;6.63;;;5.80;;
16665;SDS011;8446;50.998;6.250;2023-06-14T01:55:56;9.50;;;6.23;;
16665;SDS011;8446;50.998;6.250;2023-06-14T01:58:25;9.40;;;6.40;;
16665;SDS011;8446;50.998;6.250;2023-06-14T02:00:52;10.30;;;5.97;;
16665;SDS011;8446;50.998;6.250;2023-06-14T02:03:20;9.03;;;6.10;;
16665;SDS011;8446;50.998;6.250;2023-06-14T02:05:48;8.27;;;6.47;;
16665;SDS011;8446;50.998;6.250;2023-06-14T02:08:15;14.37;;;6.30;;
16665;SDS011;8446;50.998;6.250;2023-06-14T02:10:42;6.77;;;6.07;;
16665;SDS011;8446;50.998;6.250;2023-06-14T02:13:08;14.77;;;6.20;;
16665;SDS011;8446;50.998;6.250;2023-06-14T02:15:36;11.27;;;6.83;;
16665;SDS011;8446;50.998;6.250;2023-06-14T02:18:03;10.37;;;5.87;;
16665;SDS011;8446;50.998;6.250;2023-06-14T02:20:30;7.23;;;6.17;;
16665;SDS011;8446;50.998;6.250;2023-06-14T02:22:57;9.67;;;6.83;;
16665;SDS011;8446;50.998;6.250;2023-06-14T02:25:24;9.00;;;6.67;;
16665;SDS011;8446;50.998;6.250;2023-06-14T02:27:52;17.27;;;7.47;;
16665;SDS011;8446;50.998;6.250;2023-06-14T02:30:20;11.47;;;7.47;;
16665;SDS011;8446;50.998;6.250;2023-06-14T02:32:48;7.83;;;6.10;;
16665;SDS011;8446;50.998;6.250;2023-06-14T02:35:16;8.43;;;6.53;;
16665;SDS011;8446;50.998;6.250;2023-06-14T02:37:43;8.70;;;6.10;;
16665;SDS011;8446;50.998;6.250;2023-06-14T02:40:10;10.80;;;7.30;;
16665;SDS011;8446;50.998;6.250;2023-06-14T02:42:37;10.33;;;6.50;;
16665;SDS011;8446;50.998;6.250;2023-06-14T02:45:05;10.57;;;6.07;;
16665;SDS011;8446;50.998;6.250;2023-06-14T02:47:32;10.57;;;6.37;;
16665;SDS011;8446;50.998;6.250;2023-06-14T02:50:00;16.83;;;7.20;;
16665;SDS011;8446;50.998;6.250;2023-06-14T02:52:28;8.60;;;6.47;;
16665;SDS011;8446;50.998;6.250;2023-06-14T02:54:58;8.00;;;6.20;;
16665;SDS011;8446;50.998;6.250;2023-06-14T02:57:25;9.63;;;5.87;;
16665;SDS011;8446;50.998;6.250;2023-06-14T02:59:52;9.77;;;6.20;;
16665;SDS011;8446;50.998;6.250;2023-06-14T03:02:18;10.20;;;5.97;;
16665;SDS011;8446;50.998;6.250;2023-06-14T03:04:45;10.63;;;6.50;;
16665;SDS011;8446;50.998;6.250;2023-06-14T03:07:13;7.70;;;6.17;;
16665;SDS011;8446;50.998;6.250;2023-06-14T03:09:44;9.13;;;6.23;;
16665;SDS011;8446;50.998;6.250;2023-06-14T03:12:12;8.20;;;6.13;;
16665;SDS011;8446;50.998;6.250;2023-06-14T03:14:39;11.10;;;6.50;;
16665;SDS011;8446;50.998;6.250;2023-06-14T03:17:07;8.00;;;5.97;;
16665;SDS011;8446;50.998;6.250;2023-06-14T03:19:34;15.47;;;7.03;;
16665;SDS011;8446;50.998;6.250;2023-06-14T03:22:01;15.03;;;7.47;;
16665;SDS011;8446;50.998;6.250;2023-06-14T03:24:30;14.33;;;7.00;;
16665;SDS011;8446;50.998;6.250;2023-06-14T03:27:01;17.23;;;6.30;;
16665;SDS011;8446;50.998;6.250;2023-06-14T03:29:28;11.37;;;6.90;;
16665;SDS011;8446;50.998;6.250;2023-06-14T03:31:56;11.50;;;7.40;;
16665;SDS011;8446;50.998;6.250;2023-06-14T03:34:24;13.83;;;6.83;;
16665;SDS011;8446;50.998;6.250;2023-06-14T03:36:51;10.40;;;6.40;;
16665;SDS011;8446;50.998;6.250;2023-06-14T03:39:18;12.67;;;7.10;;
16665;SDS011;8446;50.998;6.250;2023-06-14T03:41:46;12.47;;;6.60;;
16665;SDS011;8446;50.998;6.250;2023-06-14T03:44:14;16.27;;;7.27;;
16665;SDS011;8446;50.998;6.250;2023-06-14T03:46:42;15.43;;;7.50;;
16665;SDS011;8446;50.998;6.250;2023-06-14T03:49:10;6.93;;;5.67;;
16665;SDS011;8446;50.998;6.250;2023-06-14T03:51:37;14.10;;;6.73;;
16665;SDS011;8446;50.998;6.250;2023-06-14T03:54:04;11.27;;;5.70;;
16665;SDS011;8446;50.998;6.250;2023-06-14T03:56:31;10.37;;;6.20;;
16665;SDS011;8446;50.998;6.250;2023-06-14T03:59:00;19.20;;;6.63;;
16665;SDS011;8446;50.998;6.250;2023-06-14T04:01:27;10.00;;;7.03;;
16665;SDS011;8446;50.998;6.250;2023-06-14T04:03:55;22.73;;;6.70;;
16665;SDS011;8446;50.998;6.250;2023-06-14T04:06:23;10.07;;;6.70;;
16665;SDS011;8446;50.998;6.250;2023-06-14T04:08:57;13.80;;;7.00;;
16665;SDS011;8446;50.998;6.250;2023-06-14T04:11:27;13.33;;;6.10;;
16665;SDS011;8446;50.998;6.250;2023-06-14T04:13:54;16.37;;;6.20;;
16665;SDS011;8446;50.998;6.250;2023-06-14T04:16:23;20.73;;;8.10;;
16665;SDS011;8446;50.998;6.250;2023-06-14T04:18:50;17.40;;;7.17;;
16665;SDS011;8446;50.998;6.250;2023-06-14T04:21:17;9.10;;;6.73;;
16665;SDS011;8446;50.998;6.250;2023-06-14T04:23:44;13.57;;;8.07;;
16665;SDS011;8446;50.998;6.250;2023-06-14T04:26:11;12.27;;;6.90;;
16665;SDS011;8446;50.998;6.250;2023-06-14T04:28:38;12.57;;;7.17;;
16665;SDS011;8446;50.998;6.250;2023-06-14T04:31:05;20.23;;;7.10;;
16665;SDS011;8446;50.998;6.250;2023-06-14T04:33:34;15.70;;;8.40;;
16665;SDS011;8446;50.998;6.250;2023-06-14T04:36:08;8.90;;;6.50;;
16665;SDS011;8446;50.998;6.250;2023-06-14T04:38:35;20.00;;;7.20;;
16665;SDS011;8446;50.998;6.250;2023-06-14T04:41:02;19.90;;;7.23;;
16665;SDS011;8446;50.998;6.250;2023-06-14T04:43:28;18.10;;;6.60;;
16665;SDS011;8446;50.998;6.250;2023-06-14T04:45:56;17.93;;;7.57;;
16665;SDS011;8446;50.998;6.250;2023-06-14T04:48:23;11.00;;;7.13;;
16665;SDS011;8446;50.998;6.250;2023-06-14T04:50:51;10.40;;;7.47;;
16665;SDS011;8446;50.998;6.250;2023-06-14T04:53:19;18.53;;;7.03;;
16665;SDS011;8446;50.998;6.250;2023-06-14T04:55:48;15.13;;;8.73;;
16665;SDS011;8446;50.998;6.250;2023-06-14T04:58:15;11.87;;;8.20;;
16665;SDS011;8446;50.998;6.250;2023-06-14T05:00:42;13.73;;;7.40;;
16665;SDS011;8446;50.998;6.250;2023-06-14T05:03:09;7.63;;;6.03;;
16665;SDS011;8446;50.998;6.250;2023-06-14T05:05:38;14.33;;;5.87;;
16665;SDS011;8446;50.998;6.250;2023-06-14T05:08:06;15.77;;;5.87;;
16665;SDS011;8446;50.998;6.250;2023-06-14T05:10:33;10.00;;;5.93;;
16665;SDS011;8446;50.998;6.250;2023-06-14T05:13:01;10.80;;;6.23;;
16665;SDS011;8446;50.998;6.250;2023-06-14T05:15:28;10.90;;;6.30;;
16665;SDS011;8446;50.998;6.250;2023-06-14T05:17:55;9.80;;;6.50;;
16665;SDS011;8446;50.998;6.250;2023-06-14T05:20:22;12.30;;;5.70;;
16665;SDS011;8446;50.998;6.250;2023-06-14T05:22:49;17.50;;;6.23;;
16665;SDS011;8446;50.998;6.250;2023-06-14T05:25:19;9.70;;;6.23;;
16665;SDS011;8446;50.998;6.250;2023-06-14T05:27:46;17.40;;;6.50;;
16665;SDS011;8446;50.998;6.250;2023-06-14T05:30:13;17.43;;;6.00;;
16665;SDS011;8446;50.998;6.250;2023-06-14T05:32:42;11.53;;;5.43;;
16665;SDS011;8446;50.998;6.250;2023-06-14T05:35:08;11.00;;;6.20;;
16665;SDS011;8446;50.998;6.250;2023-06-14T05:37:36;17.63;;;5.73;;
16665;SDS011;8446;50.998;6.250;2023-06-14T05:40:03;30.17;;;5.90;;
16665;SDS011;8446;50.998;6.250;2023-06-14T05:42:33;17.17;;;6.27;;
16665;SDS011;8446;50.998;6.250;2023-06-14T05:45:00;9.90;;;5.40;;
16665;SDS011;8446;50.998;6.250;2023-06-14T05:47:27;11.60;;;6.33;;
16665;SDS011;8446;50.998;6.250;2023-06-14T05:49:54;7.67;;;4.90;;
16665;SDS011;8446;50.998;6.250;2023-06-14T05:52:21;15.97;;;5.93;;
16665;SDS011;8446;50.998;6.250;2023-06-14T05:54:47;9.60;;;5.27;;
16665;SDS011;8446;50.998;6.250;2023-06-14T05:57:15;20.27;;;5.30;;
16665;SDS011;8446;50.998;6.250;2023-06-14T05:59:43;25.47;;;6.37;;
16665;SDS011;8446;50.998;6.250;2023-06-14T06:02:10;21.57;;;5.03;;
16665;SDS011;8446;50.998;6.250;2023-06-14T06:04:36;30.77;;;6.20;;
16665;SDS011;8446;50.998;6.250;2023-06-14T06:07:03;15.23;;;5.27;;
16665;SDS011;8446;50.998;6.250;2023-06-14T06:09:31;8.53;;;5.03;;
16665;SDS011;8446;50.998;6.250;2023-06-14T06:11:58;19.57;;;6.37;;
16665;SDS011;8446;50.998;6.250;2023-06-14T06:14:25;20.17;;;6.27;;
16665;SDS011;8446;50.998;6.250;2023-06-14T06:16:53;23.67;;;5.53;;
16665;SDS011;8446;50.998;6.250;2023-06-14T06:19:20;9.00;;;5.10;;
16665;SDS011;8446;50.998;6.250;2023-06-14T06:21:47;18.70;;;5.20;;
16665;SDS011;8446;50.998;6.250;2023-06-14T06:24:14;16.53;;;4.37;;
16665;SDS011;8446;50.998;6.250;2023-06-14T06:26:40;10.03;;;5.03;;
16665;SDS011;8446;50.998;6.250;2023-06-14T06:29:07;10.20;;;4.67;;
16665;SDS011;8446;50.998;6.250;2023-06-14T06:31:35;15.93;;;5.07;;
16665;SDS011;8446;50.998;6.250;2023-06-14T06:34:03;9.40;;;4.40;;
16665;SDS011;8446;50.998;6.250;2023-06-14T06:36:30;11.37;;;4.80;;
16665;SDS011;8446;50.998;6.250;2023-06-14T06:38:56;15.23;;;4.13;;
16665;SDS011;8446;50.998;6.250;2023-06-14T06:41:23;11.33;;;5.13;;
16665;SDS011;8446;50.998;6.250;2023-06-14T06:43:50;12.70;;;4.83;;
16665;SDS011;8446;50.998;6.250;2023-06-14T06:46:17;13.27;;;4.47;;
16665;SDS011;8446;50.998;6.250;2023-06-14T06:48:44;8.53;;;4.43;;
16665;SDS011;8446;50.998;6.250;2023-06-14T06:51:13;13.00;;;4.80;;
16665;SDS011;8446;50.998;6.250;2023-06-14T06:53:41;16.23;;;5.27;;
16665;SDS011;8446;50.998;6.250;2023-06-14T06:56:08;12.20;;;4.70;;
16665;SDS011;8446;50.998;6.250;2023-06-14T06:58:35;12.17;;;4.40;;
16665;SDS011;8446;50.998;6.250;2023-06-14T07:01:02;14.40;;;3.93;;
16665;SDS011;8446;50.998;6.250;2023-06-14T07:03:29;5.43;;;3.33;;
16665;SDS011;8446;50.998;6.250;2023-06-14T07:05:56;10.10;;;4.30;;
16665;SDS011;8446;50.998;6.250;2023-06-14T07:08:24;14.70;;;4.00;;
16665;SDS011;8446;50.998;6.250;2023-06-14T07:10:51;5.43;;;3.33;;
16665;SDS011;8446;50.998;6.250;2023-06-14T07:13:18;3.97;;;3.50;;
16665;SDS011;8446;50.998;6.250;2023-06-14T07:15:46;6.20;;;3.50;;
16665;SDS011;8446;50.998;6.250;2023-06-14T07:18:13;6.97;;;3.33;;
16665;SDS011;8446;50.998;6.250;2023-06-14T07:20:40;14.23;;;3.27;;
16665;SDS011;8446;50.998;6.250;2023-06-14T07:23:08;4.50;;;3.53;;
16665;SDS011;8446;50.998;6.250;2023-06-14T07:25:37;8.70;;;3.70;;
16665;SDS011;8446;50.998;6.250;2023-06-14T07:28:04;8.67;;;3.33;;
16665;SDS011;8446;50.998;6.250;2023-06-14T07:30:31;3.00;;;2.70;;
16665;SDS011;8446;50.998;6.250;2023-06-14T07:32:58;10.97;;;3.33;;
16665;SDS011;8446;50.998;6.250;2023-06-14T07:35:25;5.60;;;3.00;;
16665;SDS011;8446;50.998;6.250;2023-06-14T07:37:52;8.73;;;4.07;;
16665;SDS011;8446;50.998;6.250;2023-06-14T07:40:18;7.40;;;3.30;;
16665;SDS011;8446;50.998;6.250;2023-06-14T07:42:46;8.87;;;4.13;;
16665;SDS011;8446;50.998;6.250;2023-06-14T07:45:15;4.10;;;3.20;;
16665;SDS011;8446;50.998;6.250;2023-06-14T07:47:42;13.23;;;4.07;;
16665;SDS011;8446;50.998;6.250;2023-06-14T07:50:09;6.20;;;3.37;;
16665;SDS011;8446;50.998;6.250;2023-06-14T07:52:36;10.10;;;3.50;;
16665;SDS011;8446;50.998;6.250;2023-06-14T07:55:03;5.27;;;3.00;;
16665;SDS011;8446;50.998;6.250;2023-06-14T07:57:31;7.60;;;3.30;;
16665;SDS011;8446;50.998;6.250;2023-06-14T07:59:59;5.00;;;3.47;;
16665;SDS011;8446;50.998;6.250;2023-06-14T08:02:26;9.53;;;3.77;;
16665;SDS011;8446;50.998;6.250;2023-06-14T08:04:53;3.10;;;2.53;;
16665;SDS011;8446;50.998;6.250;2023-06-14T08:07:20;5.23;;;3.30;;
16665;SDS011;8446;50.998;6.250;2023-06-14T08:09:46;4.67;;;3.10;;
16665;SDS011;8446;50.998;6.250;2023-06-14T08:12:13;5.57;;;2.90;;
16665;SDS011;8446;50.998;6.250;2023-06-14T08:14:41;6.53;;;3.53;;
16665;SDS011;8446;50.998;6.250;2023-06-14T08:17:10;7.20;;;2.80;;
16665;SDS011;8446;50.998;6.250;2023-06-14T08:19:37;15.63;;;3.00;;
16665;SDS011;8446;50.998;6.250;2023-06-14T08:22:04;6.20;;;3.33;;
16665;SDS011;8446;50.998;6.250;2023-06-14T08:24:31;7.60;;;3.80;;
16665;SDS011;8446;50.998;6.250;2023-06-14T08:26:58;5.33;;;3.20;;
16665;SDS011;8446;50.998;6.250;2023-06-14T08:29:26;7.60;;;3.00;;
16665;SDS011;8446;50.998;6.250;2023-06-14T08:31:55;5.30;;;2.70;;
16665;SDS011;8446;50.998;6.250;2023-06-14T08:34:24;2.53;;;2.33;;
16665;SDS011;8446;50.998;6.250;2023-06-14T08:36:50;3.83;;;2.53;;
16665;SDS011;8446;50.998;6.250;2023-06-14T08:39:17;9.77;;;3.23;;
16665;SDS011;8446;50.998;6.250;2023-06-14T08:41:46;3.30;;;2.30;;
16665;SDS011;8446;50.998;6.250;2023-06-14T08:44:13;3.30;;;2.80;;
16665;SDS011;8446;50.998;6.250;2023-06-14T08:46:40;5.27;;;2.60;;
16665;SDS011;8446;50.998;6.250;2023-06-14T08:49:08;3.30;;;2.73;;
16665;SDS011;8446;50.998;6.250;2023-06-14T08:51:39;4.00;;;2.23;;
16665;SDS011;8446;50.998;6.250;2023-06-14T08:54:06;3.67;;;2.27;;
16665;SDS011;8446;50.998;6.250;2023-06-14T08:56:33;4.10;;;2.57;;
16665;SDS011;8446;50.998;6.250;2023-06-14T08:59:00;5.03;;;2.80;;
16665;SDS011;8446;50.998;6.250;2023-06-14T09:01:28;7.00;;;2.53;;
16665;SDS011;8446;50.998;6.250;2023-06-14T09:03:56;3.03;;;2.40;;
16665;SDS011;8446;50.998;6.250;2023-06-14T09:06:24;2.33;;;2.10;;
16665;SDS011;8446;50.998;6.250;2023-06-14T09:08:54;3.67;;;2.40;;
16665;SDS011;8446;50.998;6.250;2023-06-14T09:11:22;3.20;;;2.07;;
16665;SDS011;8446;50.998;6.250;2023-06-14T09:13:50;2.73;;;2.33;;
16665;SDS011;8446;50.998;6.250;2023-06-14T09:16:17;3.67;;;2.60;;
16665;SDS011;8446;50.998;6.250;2023-06-14T09:18:44;4.53;;;2.13;;
16665;SDS011;8446;50.998;6.250;2023-06-14T09:21:13;12.63;;;2.73;;
16665;SDS011;8446;50.998;6.250;2023-06-14T09:23:41;2.50;;;2.00;;
16665;SDS011;8446;50.998;6.250;2023-06-14T09:26:12;1.90;;;1.77;;
16665;SDS011;8446;50.998;6.250;2023-06-14T09:28:42;1.60;;;1.50;;
16665;SDS011;8446;50.998;6.250;2023-06-14T09:31:10;3.57;;;1.90;;
16665;SDS011;8446;50.998;6.250;2023-06-14T09:33:37;3.50;;;2.00;;
16665;SDS011;8446;50.998;6.250;2023-06-14T09:36:04;1.50;;;1.40;;
16665;SDS011;8446;50.998;6.250;2023-06-14T09:38:36;2.53;;;1.63;;
16665;SDS011;8446;50.998;6.250;2023-06-14T09:41:06;1.90;;;1.70;;
16665;SDS011;8446;50.998;6.250;2023-06-14T09:43:34;4.93;;;2.07;;
16665;SDS011;8446;50.998;6.250;2023-06-14T09:46:02;3.63;;;1.70;;
16665;SDS011;8446;50.998;6.250;2023-06-14T09:48:30;9.30;;;1.87;;
16665;SDS011;8446;50.998;6.250;2023-06-14T09:50:57;3.57;;;1.83;;
16665;SDS011;8446;50.998;6.250;2023-06-14T09:53:25;2.00;;;1.80;;
16665;SDS011;8446;50.998;6.250;2023-06-14T09:55:54;2.50;;;1.50;;
16665;SDS011;8446;50.998;6.250;2023-06-14T09:58:23;1.93;;;1.60;;
16665;SDS011;8446;50.998;6.250;2023-06-14T10:00:55;2.13;;;1.93;;
16665;SDS011;8446;50.998;6.250;2023-06-14T10:03:24;1.70;;;1.60;;
16665;SDS011;8446;50.998;6.250;2023-06-14T10:05:54;4.70;;;2.00;;
16665;SDS011;8446;50.998;6.250;2023-06-14T10:08:26;2.50;;;1.63;;
16665;SDS011;8446;50.998;6.250;2023-06-14T10:10:58;3.20;;;2.20;;
16665;SDS011;8446;50.998;6.250;2023-06-14T10:13:25;3.20;;;1.70;;
16665;SDS011;8446;50.998;6.250;2023-06-14T10:15:54;2.73;;;2.10;;
16665;SDS011;8446;50.998;6.250;2023-06-14T10:18:33;1.50;;;1.40;;
16665;SDS011;8446;50.998;6.250;2023-06-14T10:21:08;1.40;;;1.30;;
16665;SDS011;8446;50.998;6.250;2023-06-14T10:23:42;5.17;;;1.87;;
16665;SDS011;8446;50.998;6.250;2023-06-14T10:26:17;3.50;;;1.70;;
16665;SDS011;8446;50.998;6.250;2023-06-14T10:28:55;1.67;;;1.40;;
16665;SDS011;8446;50.998;6.250;2023-06-14T10:31:26;2.33;;;1.70;;
16665;SDS011;8446;50.998;6.250;2023-06-14T10:34:07;2.20;;;1.80;;
16665;SDS011;8446;50.998;6.250;2023-06-14T10:36:34;2.77;;;1.60;;
16665;SDS011;8446;50.998;6.250;2023-06-14T10:39:04;7.47;;;1.60;;
16665;SDS011;8446;50.998;6.250;2023-06-14T10:41:35;5.37;;;1.73;;
16665;SDS011;8446;50.998;6.250;2023-06-14T10:47:07;12.03;;;1.87;;
16665;SDS011;8446;50.998;6.250;2023-06-14T10:49:36;3.20;;;1.60;;
16665;SDS011;8446;50.998;6.250;2023-06-14T10:52:08;1.80;;;1.63;;
16665;SDS011;8446;50.998;6.250;2023-06-14T10:57:29;3.33;;;2.00;;
16665;SDS011;8446;50.998;6.250;2023-06-14T10:59:56;3.20;;;1.70;;
16665;SDS011;8446;50.998;6.250;2023-06-14T11:02:33;5.37;;;1.93;;
16665;SDS011;8446;50.998;6.250;2023-06-14T11:05:23;2.50;;;1.60;;
16665;SDS011;8446;50.998;6.250;2023-06-14T11:07:56;3.77;;;1.60;;
16665;SDS011;8446;50.998;6.250;2023-06-14T11:10:35;1.60;;;1.40;;
16665;SDS011;8446;50.998;6.250;2023-06-14T11:13:03;2.37;;;1.53;;
16665;SDS011;8446;50.998;6.250;2023-06-14T11:15:30;2.83;;;1.80;;
16665;SDS011;8446;50.998;6.250;2023-06-14T11:17:59;3.70;;;1.90;;
16665;SDS011;8446;50.998;6.250;2023-06-14T11:20:30;4.17;;;1.73;;
16665;SDS011;8446;50.998;6.250;2023-06-14T11:22:57;7.10;;;1.70;;
16665;SDS011;8446;50.998;6.250;2023-06-14T11:25:24;1.50;;;1.40;;
16665;SDS011;8446;50.998;6.250;2023-06-14T11:27:53;5.17;;;2.20;;
16665;SDS011;8446;50.998;6.250;2023-06-14T11:30:20;8.33;;;1.70;;
16665;SDS011;8446;50.998;6.250;2023-06-14T11:32:47;1.80;;;1.70;;
16665;SDS011;8446;50.998;6.250;2023-06-14T11:35:16;4.40;;;2.17;;
16665;SDS011;8446;50.998;6.250;2023-06-14T11:37:44;4.70;;;1.60;;
16665;SDS011;8446;50.998;6.250;2023-06-14T11:40:11;1.77;;;1.67;;
16665;SDS011;8446;50.998;6.250;2023-06-14T11:42:39;2.17;;;1.80;;
16665;SDS011;8446;50.998;6.250;2023-06-14T11:45:07;1.60;;;1.50;;
16665;SDS011;8446;50.998;6.250;2023-06-14T11:47:35;1.70;;;1.60;;
16665;SDS011;8446;50.998;6.250;2023-06-14T11:50:03;3.80;;;1.80;;
16665;SDS011;8446;50.998;6.250;2023-06-14T11:52:33;2.80;;;2.57;;
16665;SDS011;8446;50.998;6.250;2023-06-14T11:55:02;3.20;;;1.50;;
16665;SDS011;8446;50.998;6.250;2023-06-14T11:57:30;4.97;;;2.47;;
16665;SDS011;8446;50.998;6.250;2023-06-14T12:00:02;1.77;;;1.67;;
16665;SDS011;8446;50.998;6.250;2023-06-14T12:02:32;7.67;;;1.70;;
16665;SDS011;8446;50.998;6.250;2023-06-14T12:05:03;1.97;;;1.80;;
16665;SDS011;8446;50.998;6.250;2023-06-14T12:07:34;3.03;;;1.63;;
16665;SDS011;8446;50.998;6.250;2023-06-14T12:10:04;2.40;;;1.50;;
16665;SDS011;8446;50.998;6.250;2023-06-14T12:12:34;3.83;;;1.90;;
16665;SDS011;8446;50.998;6.250;2023-06-14T12:15:03;6.83;;;2.00;;
16665;SDS011;8446;50.998;6.250;2023-06-14T12:17:31;1.93;;;1.57;;
16665;SDS011;8446;50.998;6.250;2023-06-14T12:20:04;3.23;;;1.80;;
16665;SDS011;8446;50.998;6.250;2023-06-14T12:22:37;2.80;;;1.40;;
16665;SDS011;8446;50.998;6.250;2023-06-14T12:25:04;1.73;;;1.57;;
16665;SDS011;8446;50.998;6.250;2023-06-14T12:27:31;2.60;;;1.60;;
16665;SDS011;8446;50.998;6.250;2023-06-14T12:29:58;1.60;;;1.50;;
16665;SDS011;8446;50.998;6.250;2023-06-14T12:32:26;1.40;;;1.30;;
16665;SDS011;8446;50.998;6.250;2023-06-14T12:34:53;1.90;;;1.37;;
16665;SDS011;8446;50.998;6.250;2023-06-14T12:37:19;5.53;;;1.80;;
16665;SDS011;8446;50.998;6.250;2023-06-14T12:39:48;2.40;;;1.53;;
16665;SDS011;8446;50.998;6.250;2023-06-14T12:42:15;3.10;;;1.70;;
16665;SDS011;8446;50.998;6.250;2023-06-14T12:44:43;2.33;;;2.00;;
16665;SDS011;8446;50.998;6.250;2023-06-14T12:47:10;3.77;;;1.70;;
16665;SDS011;8446;50.998;6.250;2023-06-14T12:49:37;3.00;;;2.30;;
16665;SDS011;8446;50.998;6.250;2023-06-14T12:52:04;10.43;;;2.13;;
16665;SDS011;8446;50.998;6.250;2023-06-14T12:54:31;3.20;;;2.00;;
16665;SDS011;8446;50.998;6.250;2023-06-14T12:56:59;1.70;;;1.60;;
16665;SDS011;8446;50.998;6.250;2023-06-14T12:59:26;3.37;;;1.50;;
16665;SDS011;8446;50.998;6.250;2023-06-14T13:01:57;4.73;;;2.13;;
16665;SDS011;8446;50.998;6.250;2023-06-14T13:04:25;3.83;;;1.90;;
16665;SDS011;8446;50.998;6.250;2023-06-14T13:06:52;1.70;;;1.57;;
16665;SDS011;8446;50.998;6.250;2023-06-14T13:09:19;1.87;;;1.60;;
16665;SDS011;8446;50.998;6.250;2023-06-14T13:11:46;3.77;;;1.73;;
16665;SDS011;8446;50.998;6.250;2023-06-14T13:14:14;2.00;;;1.90;;
16665;SDS011;8446;50.998;6.250;2023-06-14T13:16:41;3.70;;;1.80;;
16665;SDS011;8446;50.998;6.250;2023-06-14T13:19:08;2.30;;;2.10;;
16665;SDS011;8446;50.998;6.250;2023-06-14T13:21:34;4.00;;;2.20;;
16665;SDS011;8446;50.998;6.250;2023-06-14T13:24:01;2.97;;;2.13;;
16665;SDS011;8446;50.998;6.250;2023-06-14T13:26:28;5.20;;;2.20;;
16665;SDS011;8446;50.998;6.250;2023-06-14T13:28:55;11.70;;;1.97;;
16665;SDS011;8446;50.998;6.250;2023-06-14T13:31:23;3.83;;;1.53;;
16665;SDS011;8446;50.998;6.250;2023-06-14T13:33:50;8.73;;;1.97;;
16665;SDS011;8446;50.998;6.250;2023-06-14T13:36:17;1.70;;;1.60;;
16665;SDS011;8446;50.998;6.250;2023-06-14T13:38:44;1.80;;;1.60;;
16665;SDS011;8446;50.998;6.250;2023-06-14T13:41:10;1.83;;;1.73;;
16665;SDS011;8446;50.998;6.250;2023-06-14T13:43:37;4.70;;;1.87;;
16665;SDS011;8446;50.998;6.250;2023-06-14T13:46:04;1.87;;;1.50;;
16665;SDS011;8446;50.998;6.250;2023-06-14T13:48:32;6.60;;;1.60;;
16665;SDS011;8446;50.998;6.250;2023-06-14T13:50:59;5.23;;;1.77;;
16665;SDS011;8446;50.998;6.250;2023-06-14T13:53:29;1.70;;;1.40;;
16665;SDS011;8446;50.998;6.250;2023-06-14T13:55:55;4.03;;;2.07;;
16665;SDS011;8446;50.998;6.250;2023-06-14T13:58:22;3.33;;;1.50;;
16665;SDS011;8446;50.998;6.250;2023-06-14T14:00:49;3.27;;;1.60;;
16665;SDS011;8446;50.998;6.250;2023-06-14T14:03:16;2.43;;;1.47;;
16665;SDS011;8446;50.998;6.250;2023-06-14T14:05:46;2.80;;;1.93;;
16665;SDS011;8446;50.998;6.250;2023-06-14T14:08:12;6.10;;;1.73;;
16665;SDS011;8446;50.998;6.250;2023-06-14T14:10:39;10.50;;;1.60;;
16665;SDS011;8446;50.998;6.250;2023-06-14T14:13:06;1.73;;;1.30;;
16665;SDS011;8446;50.998;6.250;2023-06-14T14:15:33;5.13;;;1.40;;
16665;SDS011;8446;50.998;6.250;2023-06-14T14:18:00;16.20;;;2.10;;
16665;SDS011;8446;50.998;6.250;2023-06-14T14:20:29;6.93;;;1.70;;
16665;SDS011;8446;50.998;6.250;2023-06-14T14:22:57;3.63;;;1.33;;
16665;SDS011;8446;50.998;6.250;2023-06-14T14:25:24;2.53;;;1.40;;
16665;SDS011;8446;50.998;6.250;2023-06-14T14:27:51;8.40;;;1.50;;
16665;SDS011;8446;50.998;6.250;2023-06-14T14:30:18;2.63;;;1.43;;
16665;SDS011;8446;50.998;6.250;2023-06-14T14:32:48;4.57;;;1.77;;
16665;SDS011;8446;50.998;6.250;2023-06-14T14:35:16;1.40;;;1.30;;
16665;SDS011;8446;50.998;6.250;2023-06-14T14:37:43;10.13;;;1.37;;
16665;SDS011;8446;50.998;6.250;2023-06-14T14:40:11;1.50;;;1.40;;
16665;SDS011;8446;50.998;6.250;2023-06-14T14:42:38;1.50;;;1.40;;
16665;SDS011;8446;50.998;6.250;2023-06-14T14:45:06;1.80;;;1.70;;
16665;SDS011;8446;50.998;6.250;2023-06-14T14:47:33;2.77;;;1.47;;
16665;SDS011;8446;50.998;6.250;2023-06-14T14:50:00;3.70;;;1.13;;
16665;SDS011;8446;50.998;6.250;2023-06-14T14:52:27;3.07;;;1.50;;
16665;SDS011;8446;50.998;6.250;2023-06-14T14:54:53;1.40;;;1.30;;
16665;SDS011;8446;50.998;6.250;2023-06-14T14:57:22;2.27;;;1.50;;
16665;SDS011;8446;50.998;6.250;2023-06-14T14:59:48;3.17;;;1.30;;
16665;SDS011;8446;50.998;6.250;2023-06-14T15:02:15;3.30;;;1.30;;
16665;SDS011;8446;50.998;6.250;2023-06-14T15:04:42;10.00;;;1.40;;
16665;SDS011;8446;50.998;6.250;2023-06-14T15:07:09;2.17;;;1.40;;
16665;SDS011;8446;50.998;6.250;2023-06-14T15:09:36;2.80;;;1.60;;